Time;durP1;ratioP1;P1;durP2;ratioP2;P2;SDS_P1;SDS_P2;PMS_P1;PMS_P2;Temp;Humidity;BMP_temperature;BMP_pressure;BME280_temperature;BME280_humidity;BME280_pressure;Samples;Min_cycle;Max_cycle;Signal;HPM_P1;HPM_P2
2023/04/28 00:02:10;;;;;;;11.60;5.90;;;;;;;;;;5010267;28;20171;-61
2023/04/28 00:04:35;;;;;;;10.63;6.00;;;;;;;;;;5010939;28;20036;-60
2023/04/28 00:07:00;;;;;;;10.98;6.00;;;;;;;;;;5010599;28;20029;-62
2023/04/28 00:09:26;;;;;;;9.98;5.43;;;;;;;;;;5016887;28;20384;-60
2023/04/28 00:11:51;;;;;;;11.38;5.90;;;;;;;;;;5031585;28;20038;-60
2023/04/28 00:14:17;;;;;;;10.73;5.88;;;;;;;;;;5026936;28;20040;-60
2023/04/28 00:16:42;;;;;;;9.60;5.72;;;;;;;;;;5030055;28;20120;-60
2023/04/28 00:19:07;;;;;;;9.73;5.95;;;;;;;;;;5024670;28;20030;-60
2023/04/28 00:21:33;;;;;;;13.25;6.28;;;;;;;;;;5028836;28;20595;-60
2023/04/28 00:23:58;;;;;;;13.75;5.70;;;;;;;;;;5025994;28;20113;-60
2023/04/28 00:26:24;;;;;;;11.00;5.65;;;;;;;;;;5013108;28;20122;-60
2023/04/28 00:28:49;;;;;;;11.82;6.38;;;;;;;;;;5028917;28;20072;-60
2023/04/28 00:31:15;;;;;;;10.95;5.53;;;;;;;;;;5023984;28;20044;-61
2023/04/28 00:33:41;;;;;;;11.52;5.72;;;;;;;;;;5015057;28;20034;-61
2023/04/28 00:36:07;;;;;;;12.02;6.45;;;;;;;;;;5014055;28;20034;-61
2023/04/28 00:38:33;;;;;;;10.85;5.85;;;;;;;;;;5029101;28;20045;-61
2023/04/28 00:40:58;;;;;;;10.63;5.88;;;;;;;;;;5015393;28;20040;-61
2023/04/28 00:43:24;;;;;;;11.65;6.43;;;;;;;;;;5020445;28;20536;-61
2023/04/28 00:45:49;;;;;;;12.65;6.07;;;;;;;;;;5026840;28;20413;-60
2023/04/28 00:48:16;;;;;;;13.93;6.13;;;;;;;;;;5019548;28;20045;-60
2023/04/28 00:50:43;;;;;;;11.45;5.88;;;;;;;;;;5032891;28;20087;-60
2023/04/28 00:53:09;;;;;;;8.85;5.60;;;;;;;;;;5027597;28;20112;-60
2023/04/28 00:55:36;;;;;;;10.55;6.28;;;;;;;;;;5034768;28;20033;-60
2023/04/28 00:58:01;;;;;;;10.40;5.85;;;;;;;;;;5032311;28;20037;-61
2023/04/28 01:00:27;;;;;;;13.07;6.07;;;;;;;;;;5031644;28;20120;-61
2023/04/28 01:02:53;;;;;;;11.30;6.05;;;;;;;;;;5017430;28;20113;-61
2023/04/28 01:05:18;;;;;;;10.18;5.90;;;;;;;;;;5027949;28;20045;-61
2023/04/28 01:07:44;;;;;;;13.88;6.03;;;;;;;;;;5032254;28;20034;-60
2023/04/28 01:10:09;;;;;;;11.18;5.90;;;;;;;;;;5026737;28;20466;-60
2023/04/28 01:12:35;;;;;;;10.57;6.00;;;;;;;;;;5013765;28;20089;-61
2023/04/28 01:15:01;;;;;;;13.00;6.07;;;;;;;;;;5024992;28;20037;-61
2023/04/28 01:17:27;;;;;;;11.38;6.20;;;;;;;;;;5018128;28;20083;-61
2023/04/28 01:19:52;;;;;;;12.75;7.18;;;;;;;;;;5025548;28;20025;-61
2023/04/28 01:22:17;;;;;;;11.32;6.45;;;;;;;;;;5029809;28;20112;-61
2023/04/28 01:24:43;;;;;;;11.98;6.53;;;;;;;;;;5018027;28;20069;-61
2023/04/28 01:27:08;;;;;;;12.38;6.35;;;;;;;;;;5019397;28;20487;-61
2023/04/28 01:29:34;;;;;;;12.18;7.15;;;;;;;;;;5031626;28;20029;-60
2023/04/28 01:31:59;;;;;;;11.07;6.28;;;;;;;;;;5023183;28;20072;-59
2023/04/28 01:34:25;;;;;;;12.52;6.80;;;;;;;;;;5025769;28;20053;-60
2023/04/28 01:36:50;;;;;;;14.52;7.00;;;;;;;;;;5018004;28;20057;-60
2023/04/28 01:39:16;;;;;;;14.18;7.15;;;;;;;;;;5030693;28;20057;-60
2023/04/28 01:41:42;;;;;;;12.27;7.13;;;;;;;;;;5013041;28;20400;-60
2023/04/28 01:44:07;;;;;;;12.63;7.38;;;;;;;;;;5013148;28;20052;-59
2023/04/28 01:46:33;;;;;;;12.48;7.18;;;;;;;;;;5013576;28;20033;-60
2023/04/28 01:48:59;;;;;;;13.27;7.50;;;;;;;;;;5033141;28;20035;-60
2023/04/28 01:51:26;;;;;;;12.40;6.88;;;;;;;;;;5027825;28;20029;-60
2023/04/28 01:53:51;;;;;;;13.18;7.22;;;;;;;;;;5020317;28;20068;-60
2023/04/28 01:59:38;;;;;;;11.35;7.05;;;;;;;;;;5026084;28;20036;-60
2023/04/28 02:02:04;;;;;;;11.00;6.60;;;;;;;;;;5013699;28;20381;-60
2023/04/28 02:04:29;;;;;;;12.60;6.88;;;;;;;;;;5012574;28;20030;-60
2023/04/28 02:06:54;;;;;;;12.35;7.30;;;;;;;;;;5026936;28;20034;-60
2023/04/28 02:09:20;;;;;;;12.25;6.78;;;;;;;;;;5020963;28;20040;-61
2023/04/28 02:11:45;;;;;;;13.98;7.07;;;;;;;;;;5022888;28;20037;-60
2023/04/28 02:14:11;;;;;;;14.43;7.45;;;;;;;;;;5020250;28;20026;-60
2023/04/28 02:16:36;;;;;;;12.10;7.40;;;;;;;;;;5016896;28;20033;-60
2023/04/28 02:19:01;;;;;;;13.30;7.47;;;;;;;;;;5024406;28;20431;-60
2023/04/28 02:21:27;;;;;;;11.25;7.00;;;;;;;;;;5026351;28;20065;-60
2023/04/28 02:23:52;;;;;;;14.15;7.15;;;;;;;;;;5012767;28;20045;-59
2023/04/28 02:26:18;;;;;;;12.32;7.50;;;;;;;;;;5027643;28;20388;-59
2023/04/28 02:28:43;;;;;;;12.43;7.35;;;;;;;;;;5014508;28;20037;-61
2023/04/28 02:31:10;;;;;;;13.40;7.97;;;;;;;;;;5010971;28;20026;-61
2023/04/28 02:33:36;;;;;;;14.15;8.18;;;;;;;;;;5012190;28;20037;-60
2023/04/28 02:36:04;;;;;;;15.80;8.90;;;;;;;;;;5025309;28;20030;-60
2023/04/28 02:38:29;;;;;;;15.77;8.82;;;;;;;;;;5029101;28;20458;-61
2023/04/28 02:40:59;;;;;;;17.20;10.02;;;;;;;;;;5013801;28;20038;-61
2023/04/28 02:43:25;;;;;;;15.15;8.52;;;;;;;;;;5009932;28;20121;-61
2023/04/28 02:45:50;;;;;;;18.60;9.35;;;;;;;;;;5012323;28;21072;-61
2023/04/28 02:48:16;;;;;;;16.52;9.57;;;;;;;;;;5011025;28;20034;-61
2023/04/28 02:50:41;;;;;;;16.02;9.27;;;;;;;;;;5026329;28;20026;-60
2023/04/28 02:53:07;;;;;;;19.67;9.95;;;;;;;;;;5029817;28;20037;-60
2023/04/28 02:55:32;;;;;;;18.88;9.93;;;;;;;;;;5029908;28;20029;-60
2023/04/28 02:57:57;;;;;;;16.85;9.27;;;;;;;;;;5031516;28;20527;-59
2023/04/28 03:00:23;;;;;;;21.02;10.43;;;;;;;;;;5021487;28;20030;-60
2023/04/28 03:02:48;;;;;;;19.55;10.40;;;;;;;;;;5027076;28;20480;-60
2023/04/28 03:05:14;;;;;;;18.17;9.90;;;;;;;;;;5028559;28;20075;-60
2023/04/28 03:07:39;;;;;;;17.92;10.80;;;;;;;;;;5025605;28;20495;-60
2023/04/28 03:10:05;;;;;;;18.17;11.05;;;;;;;;;;5025979;28;20090;-60
2023/04/28 03:12:31;;;;;;;23.55;11.25;;;;;;;;;;5011510;28;20034;-60
2023/04/28 03:14:56;;;;;;;19.60;11.45;;;;;;;;;;5015817;28;20041;-59
2023/04/28 03:17:22;;;;;;;21.23;11.40;;;;;;;;;;5030814;28;20484;-59
2023/04/28 03:19:47;;;;;;;20.50;11.23;;;;;;;;;;5031698;28;20028;-60
2023/04/28 03:22:13;;;;;;;22.05;11.60;;;;;;;;;;5030429;28;20467;-59
2023/04/28 03:24:38;;;;;;;19.75;11.48;;;;;;;;;;5028097;28;20037;-60
2023/04/28 03:27:04;;;;;;;19.42;11.10;;;;;;;;;;5031430;28;20025;-60
2023/04/28 03:29:30;;;;;;;19.60;11.20;;;;;;;;;;5028045;28;20026;-60
2023/04/28 03:31:55;;;;;;;20.00;11.00;;;;;;;;;;5020199;28;20040;-59
2023/04/28 03:34:21;;;;;;;20.02;11.50;;;;;;;;;;5009846;28;20053;-62
2023/04/28 03:36:46;;;;;;;19.42;11.75;;;;;;;;;;5011090;28;20519;-63
2023/04/28 03:39:12;;;;;;;19.88;11.75;;;;;;;;;;5009947;28;20053;-61
2023/04/28 03:41:37;;;;;;;22.75;12.35;;;;;;;;;;5013050;28;20251;-61
2023/04/28 03:44:03;;;;;;;22.98;11.63;;;;;;;;;;5023381;28;20045;-62
2023/04/28 03:46:28;;;;;;;21.60;11.77;;;;;;;;;;5014537;28;20049;-61
2023/04/28 03:48:55;;;;;;;22.20;12.80;;;;;;;;;;5014734;28;20115;-62
2023/04/28 03:51:20;;;;;;;24.17;12.30;;;;;;;;;;5014016;28;20030;-61
2023/04/28 03:53:45;;;;;;;24.05;12.38;;;;;;;;;;5019768;28;20042;-61
2023/04/28 03:56:11;;;;;;;21.90;12.93;;;;;;;;;;5034493;28;20029;-61
2023/04/28 03:58:36;;;;;;;23.40;13.13;;;;;;;;;;5025321;28;20053;-61
2023/04/28 04:01:02;;;;;;;25.45;13.55;;;;;;;;;;5026288;28;20460;-61
2023/04/28 04:03:27;;;;;;;24.27;12.90;;;;;;;;;;5017750;28;20030;-61
2023/04/28 04:05:53;;;;;;;26.23;13.98;;;;;;;;;;5014854;28;20034;-61
2023/04/28 04:08:19;;;;;;;23.27;12.82;;;;;;;;;;5015863;28;20391;-61
2023/04/28 04:10:44;;;;;;;24.67;14.00;;;;;;;;;;5027424;28;20033;-61
2023/04/28 04:13:10;;;;;;;23.00;13.80;;;;;;;;;;5014845;28;20026;-61
2023/04/28 04:15:35;;;;;;;24.65;13.52;;;;;;;;;;5015886;28;20034;-61
2023/04/28 04:18:00;;;;;;;24.45;14.50;;;;;;;;;;5029428;28;20055;-61
2023/04/28 04:20:26;;;;;;;26.10;14.02;;;;;;;;;;5016898;28;20030;-62
2023/04/28 04:22:51;;;;;;;29.17;15.25;;;;;;;;;;5014250;28;20065;-61
2023/04/28 04:25:17;;;;;;;26.80;14.65;;;;;;;;;;5014270;28;20392;-61
2023/04/28 04:27:42;;;;;;;29.13;14.68;;;;;;;;;;5029136;28;20033;-60
2023/04/28 04:30:08;;;;;;;27.52;15.95;;;;;;;;;;5024369;28;20037;-60
2023/04/28 04:32:33;;;;;;;26.17;15.35;;;;;;;;;;5017874;28;20030;-61
2023/04/28 04:34:59;;;;;;;28.08;15.57;;;;;;;;;;5023185;28;20113;-61
2023/04/28 04:37:24;;;;;;;28.58;15.02;;;;;;;;;;5030410;28;20454;-62
2023/04/28 04:39:50;;;;;;;27.95;15.75;;;;;;;;;;5013668;28;20484;-61
2023/04/28 04:42:15;;;;;;;27.88;15.68;;;;;;;;;;5013899;28;20029;-60
2023/04/28 04:44:40;;;;;;;28.17;15.27;;;;;;;;;;5013620;28;20038;-61
2023/04/28 04:47:06;;;;;;;26.27;16.40;;;;;;;;;;5017912;28;20073;-61
2023/04/28 04:49:31;;;;;;;27.38;15.18;;;;;;;;;;5033228;28;20034;-61
2023/04/28 04:51:57;;;;;;;27.45;16.42;;;;;;;;;;5034102;28;20463;-61
2023/04/28 04:54:22;;;;;;;26.73;15.75;;;;;;;;;;5017293;28;20476;-61
2023/04/28 04:56:48;;;;;;;28.83;15.85;;;;;;;;;;5029469;28;20035;-61
2023/04/28 04:59:13;;;;;;;27.90;15.38;;;;;;;;;;5053806;28;20328;-61
2023/04/28 05:01:39;;;;;;;28.95;15.50;;;;;;;;;;5035170;28;20037;-61
2023/04/28 05:04:04;;;;;;;27.60;16.15;;;;;;;;;;5015523;28;20034;-60
2023/04/28 05:06:30;;;;;;;29.48;16.73;;;;;;;;;;5012534;28;20040;-61
2023/04/28 05:08:57;;;;;;;27.73;16.38;;;;;;;;;;5020948;28;20034;-61
2023/04/28 05:11:22;;;;;;;25.65;15.63;;;;;;;;;;5021429;28;20033;-61
2023/04/28 05:13:48;;;;;;;29.42;16.50;;;;;;;;;;5017593;28;20399;-61
2023/04/28 05:16:13;;;;;;;29.70;15.82;;;;;;;;;;5022066;28;20033;-61
2023/04/28 05:18:39;;;;;;;25.25;15.75;;;;;;;;;;5032869;28;20029;-61
2023/04/28 05:21:05;;;;;;;26.80;16.55;;;;;;;;;;5028673;28;20065;-61
2023/04/28 05:23:30;;;;;;;28.08;16.27;;;;;;;;;;5034198;28;20030;-60
2023/04/28 05:25:56;;;;;;;30.77;16.98;;;;;;;;;;5016028;28;20033;-61
2023/04/28 05:28:22;;;;;;;31.25;17.17;;;;;;;;;;5013455;28;20385;-61
2023/04/28 05:30:47;;;;;;;28.42;16.85;;;;;;;;;;5019153;28;20029;-61
2023/04/28 05:33:12;;;;;;;30.73;17.25;;;;;;;;;;5023888;28;20384;-61
2023/04/28 05:35:38;;;;;;;29.27;17.83;;;;;;;;;;5012462;28;20408;-60
2023/04/28 05:38:03;;;;;;;32.05;17.30;;;;;;;;;;5012607;28;20463;-60
2023/04/28 05:40:29;;;;;;;29.02;16.85;;;;;;;;;;5011925;28;20029;-60
2023/04/28 05:42:55;;;;;;;26.60;17.10;;;;;;;;;;5014433;28;20029;-60
2023/04/28 05:45:20;;;;;;;30.80;17.85;;;;;;;;;;5013462;28;20040;-60
2023/04/28 05:47:46;;;;;;;32.67;18.23;;;;;;;;;;5012929;28;20069;-61
2023/04/28 05:50:11;;;;;;;33.00;18.02;;;;;;;;;;5012871;28;20045;-61
2023/04/28 05:52:37;;;;;;;26.38;16.10;;;;;;;;;;5026306;28;20055;-61
2023/04/28 05:55:02;;;;;;;28.85;17.10;;;;;;;;;;5030876;28;20505;-62
2023/04/28 05:57:28;;;;;;;24.58;16.42;;;;;;;;;;5017590;28;20048;-60
2023/04/28 05:59:53;;;;;;;26.25;16.38;;;;;;;;;;5019115;28;20086;-61
2023/04/28 06:02:19;;;;;;;25.92;16.60;;;;;;;;;;5045035;28;20486;-61
2023/04/28 06:04:44;;;;;;;28.25;17.98;;;;;;;;;;5051509;28;20111;-60
2023/04/28 06:07:10;;;;;;;28.00;17.73;;;;;;;;;;5033336;28;20036;-62
2023/04/28 06:09:35;;;;;;;33.00;16.50;;;;;;;;;;5031861;28;20044;-60
2023/04/28 06:12:02;;;;;;;27.40;16.50;;;;;;;;;;5032402;28;20112;-60
2023/04/28 06:14:27;;;;;;;24.30;15.95;;;;;;;;;;5031634;28;20038;-60
2023/04/28 06:16:53;;;;;;;29.75;16.35;;;;;;;;;;5016114;28;20057;-61
2023/04/28 06:19:19;;;;;;;29.73;16.00;;;;;;;;;;5012700;28;20042;-62
2023/04/28 06:21:45;;;;;;;25.05;15.38;;;;;;;;;;5016926;28;20053;-61
2023/04/28 06:24:10;;;;;;;25.25;16.08;;;;;;;;;;5020980;28;20038;-62
2023/04/28 06:26:36;;;;;;;28.00;16.48;;;;;;;;;;5011683;28;20049;-62
2023/04/28 06:29:02;;;;;;;30.50;16.75;;;;;;;;;;5011820;28;20036;-61
2023/04/28 06:31:27;;;;;;;27.42;16.30;;;;;;;;;;5023725;28;20033;-60
2023/04/28 06:33:53;;;;;;;27.67;17.13;;;;;;;;;;5018323;28;20037;-64
2023/04/28 06:36:18;;;;;;;24.98;15.32;;;;;;;;;;5011897;28;20038;-60
2023/04/28 06:38:44;;;;;;;25.23;15.27;;;;;;;;;;5010749;28;20050;-61
2023/04/28 06:41:10;;;;;;;25.73;15.57;;;;;;;;;;5011498;28;20436;-61
2023/04/28 06:43:36;;;;;;;27.48;16.20;;;;;;;;;;5021056;28;20116;-61
2023/04/28 06:46:02;;;;;;;26.02;15.88;;;;;;;;;;5018441;28;20064;-60
2023/04/28 06:48:27;;;;;;;25.05;15.35;;;;;;;;;;5024213;28;20472;-61
2023/04/28 06:50:53;;;;;;;22.48;15.25;;;;;;;;;;5032101;28;20025;-61
2023/04/28 06:53:18;;;;;;;27.58;15.23;;;;;;;;;;5044331;28;20030;-61
2023/04/28 06:55:44;;;;;;;26.83;15.32;;;;;;;;;;5010066;28;20053;-62
2023/04/28 06:58:10;;;;;;;23.85;14.75;;;;;;;;;;5011956;28;20047;-61
2023/04/28 07:00:35;;;;;;;21.63;14.60;;;;;;;;;;5010926;28;20034;-61
2023/04/28 07:03:01;;;;;;;24.95;14.25;;;;;;;;;;5024269;28;20067;-61
2023/04/28 07:05:27;;;;;;;24.83;14.95;;;;;;;;;;5026840;28;20384;-61
2023/04/28 07:07:53;;;;;;;24.08;14.70;;;;;;;;;;5012546;28;20108;-62
2023/04/28 07:10:18;;;;;;;24.88;15.18;;;;;;;;;;5021987;28;20045;-62
2023/04/28 07:12:44;;;;;;;20.75;14.65;;;;;;;;;;5020224;28;20100;-61
2023/04/28 07:15:10;;;;;;;24.55;16.00;;;;;;;;;;5017056;28;20072;-61
2023/04/28 07:17:36;;;;;;;24.15;15.07;;;;;;;;;;5025651;28;20443;-62
2023/04/28 07:20:03;;;;;;;23.05;14.55;;;;;;;;;;5014711;28;20042;-62
2023/04/28 07:22:28;;;;;;;24.58;14.52;;;;;;;;;;5020089;28;20021;-62
2023/04/28 07:24:53;;;;;;;23.35;14.70;;;;;;;;;;5025581;28;20480;-62
2023/04/28 07:27:19;;;;;;;17.58;12.52;;;;;;;;;;5015471;28;20120;-61
2023/04/28 07:29:44;;;;;;;18.38;12.65;;;;;;;;;;5014719;28;20454;-62
2023/04/28 07:32:09;;;;;;;17.80;12.23;;;;;;;;;;5015432;28;20472;-62
2023/04/28 07:34:36;;;;;;;20.52;11.82;;;;;;;;;;5014437;28;20038;-62
2023/04/28 07:37:02;;;;;;;17.65;11.90;;;;;;;;;;5015339;28;20057;-61
2023/04/28 07:39:29;;;;;;;16.45;10.95;;;;;;;;;;5017026;28;20084;-61
2023/04/28 07:41:56;;;;;;;15.23;10.98;;;;;;;;;;5014400;28;20068;-61
2023/04/28 07:44:22;;;;;;;18.92;11.25;;;;;;;;;;5015032;28;20037;-61
2023/04/28 07:46:48;;;;;;;15.05;10.20;;;;;;;;;;5014316;28;20034;-61
2023/04/28 07:49:13;;;;;;;15.90;10.15;;;;;;;;;;5018070;28;20042;-60
2023/04/28 07:51:38;;;;;;;17.48;9.90;;;;;;;;;;5014170;28;20030;-61
2023/04/28 07:54:04;;;;;;;16.48;10.35;;;;;;;;;;5015555;28;20034;-61
2023/04/28 07:56:30;;;;;;;16.83;9.50;;;;;;;;;;5014850;28;20401;-61
2023/04/28 07:58:55;;;;;;;14.55;9.00;;;;;;;;;;5014293;28;20034;-60
2023/04/28 08:01:21;;;;;;;15.10;9.23;;;;;;;;;;5015225;28;20044;-60
2023/04/28 08:03:46;;;;;;;14.80;9.20;;;;;;;;;;5016110;28;20112;-60
2023/04/28 08:06:12;;;;;;;13.85;8.48;;;;;;;;;;5014825;28;20034;-61
2023/04/28 08:08:37;;;;;;;13.02;8.88;;;;;;;;;;5017380;28;20123;-61
2023/04/28 08:11:03;;;;;;;13.80;8.38;;;;;;;;;;5020697;28;20499;-61
2023/04/28 08:13:29;;;;;;;14.70;9.07;;;;;;;;;;5039556;28;20464;-60
2023/04/28 08:15:55;;;;;;;11.48;8.32;;;;;;;;;;5014271;28;20038;-60
2023/04/28 08:18:21;;;;;;;13.52;8.48;;;;;;;;;;5019226;28;20032;-60
2023/04/28 08:20:46;;;;;;;12.18;8.82;;;;;;;;;;5024758;28;20041;-61
2023/04/28 08:23:12;;;;;;;14.20;8.15;;;;;;;;;;5019963;28;20042;-61
2023/04/28 08:25:37;;;;;;;13.38;8.48;;;;;;;;;;5030032;28;20038;-60
2023/04/28 08:28:05;;;;;;;11.50;8.43;;;;;;;;;;5032463;28;20037;-61
2023/04/28 08:30:30;;;;;;;13.50;8.43;;;;;;;;;;5033985;28;20095;-60
2023/04/28 08:32:56;;;;;;;15.90;8.25;;;;;;;;;;5022151;28;20441;-61
2023/04/28 08:35:21;;;;;;;13.13;8.35;;;;;;;;;;5014629;28;20022;-60
2023/04/28 08:37:48;;;;;;;14.07;8.15;;;;;;;;;;5013242;28;20053;-61
2023/04/28 08:40:14;;;;;;;12.43;8.73;;;;;;;;;;5030070;28;20124;-61
2023/04/28 08:42:40;;;;;;;13.93;8.80;;;;;;;;;;5017366;28;20029;-61
2023/04/28 08:45:06;;;;;;;13.32;8.20;;;;;;;;;;5017765;28;20092;-61
2023/04/28 08:47:37;;;;;;;11.55;7.93;;;;;;;;;;5014194;28;20120;-61
2023/04/28 08:50:07;;;;;;;11.73;8.02;;;;;;;;;;5014040;28;20038;-61
2023/04/28 08:52:33;;;;;;;10.30;7.53;;;;;;;;;;5013432;28;20072;-60
2023/04/28 08:55:02;;;;;;;11.95;7.93;;;;;;;;;;5015824;28;20482;-61
2023/04/28 08:57:34;;;;;;;11.48;7.65;;;;;;;;;;5030776;28;20033;-61
2023/04/28 08:59:59;;;;;;;11.25;7.60;;;;;;;;;;5025681;28;20048;-61
2023/04/28 09:02:25;;;;;;;12.63;7.03;;;;;;;;;;5013787;28;20108;-61
2023/04/28 09:04:50;;;;;;;10.57;6.80;;;;;;;;;;5012895;28;20463;-61
2023/04/28 09:07:16;;;;;;;16.42;7.00;;;;;;;;;;5013767;28;20026;-61
2023/04/28 09:09:41;;;;;;;12.20;6.78;;;;;;;;;;5014970;28;20369;-62
2023/04/28 09:12:07;;;;;;;9.55;6.60;;;;;;;;;;5026930;28;20029;-61
2023/04/28 09:14:35;;;;;;;10.70;6.88;;;;;;;;;;5016023;28;20038;-62
2023/04/28 09:17:01;;;;;;;9.70;6.80;;;;;;;;;;5013451;28;20037;-61
2023/04/28 09:19:35;;;;;;;11.75;7.00;;;;;;;;;;5013514;28;20113;-61
2023/04/28 09:22:00;;;;;;;11.52;6.75;;;;;;;;;;5013011;28;20579;-61
2023/04/28 09:24:31;;;;;;;10.75;6.20;;;;;;;;;;5013056;28;20038;-62
2023/04/28 09:26:59;;;;;;;;;;;;;;;;;;5012908;28;20049;-61
2023/04/28 09:29:25;;;;;;;9.32;5.85;;;;;;;;;;5014385;28;20311;-61
2023/04/28 09:31:50;;;;;;;9.65;5.88;;;;;;;;;;5012651;28;20468;-61
2023/04/28 09:34:16;;;;;;;9.13;5.82;;;;;;;;;;5013252;28;20498;-62
2023/04/28 09:36:41;;;;;;;7.80;5.75;;;;;;;;;;5012290;28;20030;-61
2023/04/28 09:39:07;;;;;;;9.45;5.40;;;;;;;;;;5013509;28;20040;-62
2023/04/28 09:41:40;;;;;;;8.93;5.55;;;;;;;;;;5012572;28;20042;-63
2023/04/28 09:44:17;;;;;;;9.10;5.43;;;;;;;;;;5012489;28;20511;-62
2023/04/28 09:46:44;;;;;;;9.23;5.05;;;;;;;;;;5027340;28;20039;-62
2023/04/28 09:49:14;;;;;;;10.90;5.60;;;;;;;;;;5015470;28;20029;-62
2023/04/28 09:51:40;;;;;;;8.15;5.50;;;;;;;;;;5012330;28;20128;-62
2023/04/28 09:54:06;;;;;;;8.85;6.05;;;;;;;;;;5012575;28;20034;-61
2023/04/28 09:56:33;;;;;;;8.38;5.55;;;;;;;;;;5016216;28;20033;-61
2023/04/28 09:59:00;;;;;;;7.70;5.75;;;;;;;;;;5011675;28;20054;-61
2023/04/28 10:01:39;;;;;;;12.00;6.32;;;;;;;;;;5028848;28;20042;-61
2023/04/28 10:04:06;;;;;;;12.23;6.47;;;;;;;;;;5012300;28;20021;-62
2023/04/28 10:06:35;;;;;;;13.23;6.65;;;;;;;;;;5014510;28;20121;-62
2023/04/28 10:09:00;;;;;;;11.00;6.55;;;;;;;;;;5022716;28;20102;-64
2023/04/28 10:11:27;;;;;;;9.32;5.72;;;;;;;;;;5022876;28;20048;-62
2023/04/28 10:13:53;;;;;;;9.43;5.80;;;;;;;;;;5015684;28;20121;-63
2023/04/28 10:16:19;;;;;;;9.00;5.70;;;;;;;;;;5012305;28;20026;-63
2023/04/28 10:18:45;;;;;;;10.25;6.07;;;;;;;;;;5011728;28;20107;-63
2023/04/28 10:21:13;;;;;;;8.07;5.55;;;;;;;;;;5012394;28;20465;-62
2023/04/28 10:23:57;;;;;;;9.55;5.75;;;;;;;;;;5012301;28;20487;-62
2023/04/28 10:26:35;;;;;;;9.10;5.50;;;;;;;;;;5026191;28;20119;-63
2023/04/28 10:29:00;;;;;;;10.13;5.68;;;;;;;;;;5023722;28;20033;-63
2023/04/28 10:31:26;;;;;;;7.82;5.72;;;;;;;;;;5016418;28;20037;-62
2023/04/28 10:33:51;;;;;;;8.48;5.63;;;;;;;;;;5011098;28;20037;-63
2023/04/28 10:36:56;;;;;;;9.25;5.60;;;;;;;;;;5012521;28;20461;-62
2023/04/28 10:39:22;;;;;;;7.57;5.35;;;;;;;;;;5016865;28;20440;-62
2023/04/28 10:41:47;;;;;;;8.73;5.72;;;;;;;;;;5012144;28;20121;-62
2023/04/28 10:44:28;;;;;;;8.95;5.90;;;;;;;;;;5011951;28;20033;-63
2023/04/28 10:47:08;;;;;;;11.07;6.20;;;;;;;;;;5024407;28;20034;-62
2023/04/28 10:50:06;;;;;;;7.72;5.93;;;;;;;;;;5011582;28;20053;-63
2023/04/28 10:52:32;;;;;;;8.55;6.50;;;;;;;;;;4995924;28;20030;-62
2023/04/28 10:55:32;;;;;;;9.48;6.35;;;;;;;;;;5010863;28;20040;-63
2023/04/28 10:58:15;;;;;;;8.52;5.85;;;;;;;;;;5012527;28;20030;-63
2023/04/28 11:00:43;;;;;;;7.68;5.75;;;;;;;;;;5021027;28;20029;-62
2023/04/28 11:03:38;;;;;;;8.73;5.55;;;;;;;;;;5042908;28;20041;-64
2023/04/28 11:06:36;;;;;;;9.27;5.88;;;;;;;;;;5010977;28;20120;-62
2023/04/28 11:09:13;;;;;;;9.10;5.80;;;;;;;;;;5017956;28;20376;-62
2023/04/28 11:11:59;;;;;;;9.55;5.97;;;;;;;;;;5012048;28;20030;-63
2023/04/28 11:14:24;;;;;;;10.25;6.32;;;;;;;;;;5010253;28;20065;-63
2023/04/28 11:17:00;;;;;;;10.07;6.72;;;;;;;;;;5010520;28;20073;-63
2023/04/28 11:19:27;;;;;;;11.60;7.28;;;;;;;;;;5011519;28;20483;-63
2023/04/28 11:21:57;;;;;;;11.48;7.38;;;;;;;;;;5010150;28;20462;-62
2023/04/28 11:24:28;;;;;;;12.35;8.05;;;;;;;;;;5011637;28;20095;-63
2023/04/28 11:26:53;;;;;;;13.82;9.02;;;;;;;;;;5010431;28;20042;-64
2023/04/28 11:29:32;;;;;;;15.30;9.05;;;;;;;;;;5011018;28;20034;-62
2023/04/28 11:31:57;;;;;;;15.75;9.13;;;;;;;;;;5011064;28;20080;-62
2023/04/28 11:34:23;;;;;;;13.40;9.43;;;;;;;;;;5009993;28;20034;-64
2023/04/28 11:36:49;;;;;;;16.90;10.85;;;;;;;;;;5024638;28;20160;-62
2023/04/28 11:39:15;;;;;;;16.30;10.25;;;;;;;;;;5024923;28;20104;-62
2023/04/28 11:41:44;;;;;;;14.90;9.95;;;;;;;;;;5013413;28;20471;-62
2023/04/28 11:44:16;;;;;;;15.07;9.73;;;;;;;;;;5023133;28;20041;-62
2023/04/28 11:46:49;;;;;;;22.23;11.15;;;;;;;;;;5012142;28;20058;-62
2023/04/28 11:49:15;;;;;;;17.80;11.43;;;;;;;;;;5031883;28;20029;-62
2023/04/28 11:51:41;;;;;;;17.77;11.30;;;;;;;;;;5021367;28;20400;-61
2023/04/28 11:54:10;;;;;;;23.42;12.88;;;;;;;;;;5010185;28;20033;-62
2023/04/28 11:56:39;;;;;;;18.67;11.98;;;;;;;;;;5015398;28;20068;-63
2023/04/28 11:59:10;;;;;;;18.30;12.80;;;;;;;;;;5010793;28;20025;-64
2023/04/28 12:01:50;;;;;;;21.25;12.93;;;;;;;;;;5011345;28;20491;-63
2023/04/28 12:04:36;;;;;;;18.90;12.95;;;;;;;;;;5012352;28;20096;-63
2023/04/28 12:07:12;;;;;;;19.33;12.90;;;;;;;;;;5014408;28;20030;-63
2023/04/28 12:09:40;;;;;;;22.13;14.50;;;;;;;;;;5027451;28;20551;-63
2023/04/28 12:12:08;;;;;;;21.15;14.25;;;;;;;;;;5014584;28;20041;-62
2023/04/28 12:14:58;;;;;;;21.83;14.38;;;;;;;;;;5014657;28;20033;-63
2023/04/28 12:17:31;;;;;;;22.60;14.85;;;;;;;;;;5019944;28;20124;-62
2023/04/28 12:19:59;;;;;;;21.20;14.55;;;;;;;;;;5022599;28;20041;-62
2023/04/28 12:22:24;;;;;;;23.25;15.23;;;;;;;;;;5021663;28;20022;-63
2023/04/28 12:25:07;;;;;;;25.15;16.50;;;;;;;;;;5013810;28;20380;-63
2023/04/28 12:27:35;;;;;;;23.95;16.30;;;;;;;;;;5015609;28;20507;-63
2023/04/28 12:30:00;;;;;;;27.48;15.98;;;;;;;;;;5013491;28;20490;-63
2023/04/28 12:32:44;;;;;;;25.95;16.40;;;;;;;;;;5014159;28;20101;-63
2023/04/28 12:35:10;;;;;;;24.33;16.00;;;;;;;;;;5013820;28;20037;-63
2023/04/28 12:37:37;;;;;;;26.25;17.38;;;;;;;;;;5014793;28;20048;-64
2023/04/28 12:40:03;;;;;;;25.85;16.48;;;;;;;;;;5020678;28;20030;-63
2023/04/28 12:42:29;;;;;;;28.70;17.10;;;;;;;;;;5049512;28;20032;-64
2023/04/28 12:44:54;;;;;;;27.95;17.38;;;;;;;;;;5042665;28;20037;-63
2023/04/28 12:47:20;;;;;;;29.48;18.10;;;;;;;;;;5018588;28;20033;-64
2023/04/28 12:49:47;;;;;;;27.20;17.90;;;;;;;;;;5026722;28;20361;-63
2023/04/28 12:52:12;;;;;;;25.67;18.52;;;;;;;;;;5013119;28;20042;-64
2023/04/28 12:54:37;;;;;;;29.40;19.15;;;;;;;;;;5021857;28;20029;-64
2023/04/28 12:57:04;;;;;;;26.23;18.10;;;;;;;;;;5022747;28;20041;-65
2023/04/28 12:59:31;;;;;;;27.75;19.63;;;;;;;;;;5018010;28;20041;-63
2023/04/28 13:01:56;;;;;;;27.80;19.60;;;;;;;;;;5033430;28;20033;-63
2023/04/28 13:04:22;;;;;;;28.45;19.63;;;;;;;;;;5018993;28;20121;-64
2023/04/28 13:06:47;;;;;;;29.00;20.20;;;;;;;;;;5028588;28;20048;-63
2023/04/28 13:09:14;;;;;;;26.42;17.60;;;;;;;;;;5022214;28;20373;-65
2023/04/28 13:11:40;;;;;;;28.55;19.73;;;;;;;;;;5017507;28;20034;-65
2023/04/28 13:14:06;;;;;;;25.63;18.67;;;;;;;;;;5013966;28;20058;-65
2023/04/28 13:16:32;;;;;;;24.80;18.52;;;;;;;;;;5013791;28;20070;-65
2023/04/28 13:18:58;;;;;;;23.85;17.63;;;;;;;;;;5012415;28;20136;-64
2023/04/28 13:21:25;;;;;;;23.40;17.05;;;;;;;;;;5013393;28;20503;-64
2023/04/28 13:23:51;;;;;;;19.90;16.35;;;;;;;;;;5013523;28;20480;-64
2023/04/28 13:26:18;;;;;;;19.48;15.63;;;;;;;;;;5016260;28;20064;-63
2023/04/28 13:28:45;;;;;;;18.85;15.32;;;;;;;;;;5025442;28;20038;-63
2023/04/28 13:31:11;;;;;;;19.17;14.18;;;;;;;;;;5014368;28;20332;-63
2023/04/28 13:33:36;;;;;;;17.77;14.27;;;;;;;;;;5027540;28;20065;-63
2023/04/28 13:36:02;;;;;;;17.52;14.52;;;;;;;;;;5012391;28;20041;-62
2023/04/28 13:38:27;;;;;;;17.02;13.73;;;;;;;;;;5012817;28;20053;-63
2023/04/28 13:40:52;;;;;;;17.17;13.65;;;;;;;;;;5012825;28;20030;-62
2023/04/28 13:43:18;;;;;;;16.92;13.68;;;;;;;;;;5012129;28;20064;-63
2023/04/28 13:45:44;;;;;;;16.63;14.07;;;;;;;;;;5014217;28;20396;-63
2023/04/28 13:48:09;;;;;;;17.20;13.60;;;;;;;;;;5013646;28;20041;-63
2023/04/28 13:50:35;;;;;;;14.32;12.57;;;;;;;;;;5029069;28;20068;-62
2023/04/28 13:53:00;;;;;;;14.20;11.20;;;;;;;;;;5012019;28;20108;-62
2023/04/28 13:55:28;;;;;;;14.75;11.27;;;;;;;;;;5012627;28;20147;-62
2023/04/28 13:57:55;;;;;;;13.20;10.85;;;;;;;;;;5012150;28;20062;-62
2023/04/28 14:00:21;;;;;;;17.10;11.23;;;;;;;;;;5018826;28;20468;-62
2023/04/28 14:02:48;;;;;;;12.82;11.38;;;;;;;;;;5019276;28;20544;-62
2023/04/28 14:05:15;;;;;;;11.60;10.07;;;;;;;;;;5011405;28;20034;-62
2023/04/28 14:07:41;;;;;;;11.27;9.25;;;;;;;;;;5013795;28;20040;-62
2023/04/28 14:10:07;;;;;;;9.98;7.68;;;;;;;;;;5011533;28;20038;-62
2023/04/28 14:12:33;;;;;;;9.73;7.60;;;;;;;;;;5012920;28;20376;-63
2023/04/28 14:14:58;;;;;;;9.23;7.03;;;;;;;;;;5010795;28;20124;-63
2023/04/28 14:17:23;;;;;;;8.43;6.75;;;;;;;;;;5012378;28;20160;-62
2023/04/28 14:19:49;;;;;;;8.48;6.45;;;;;;;;;;5012340;28;20033;-62
2023/04/28 14:22:14;;;;;;;7.28;5.50;;;;;;;;;;5011808;28;20022;-62
2023/04/28 14:24:41;;;;;;;9.40;6.35;;;;;;;;;;5027647;28;20104;-63
2023/04/28 14:27:07;;;;;;;9.13;6.03;;;;;;;;;;5011559;28;20042;-63
2023/04/28 14:29:32;;;;;;;8.57;6.57;;;;;;;;;;5011787;28;20056;-63